createdAt,value
2018-07-14T00:01:01.972Z,6.87
2018-07-14T00:03:31.136Z,7.80
2018-07-14T00:06:00.012Z,7.07
2018-07-14T00:08:28.828Z,6.27
2018-07-14T00:10:58.105Z,7.67
2018-07-14T00:13:27.217Z,7.53
2018-07-14T00:15:56.348Z,7.50
2018-07-14T00:18:25.435Z,7.20
2018-07-14T00:20:54.332Z,6.50
2018-07-14T00:23:23.418Z,5.90
2018-07-14T00:25:57.366Z,6.47
2018-07-14T00:28:26.116Z,6.73
2018-07-14T00:30:54.865Z,6.60
2018-07-14T00:33:24.372Z,7.60
2018-07-14T00:35:53.207Z,6.50
2018-07-14T00:38:22.433Z,6.63
2018-07-14T00:40:51.459Z,7.33
2018-07-14T00:43:20.617Z,7.03
2018-07-14T00:45:49.984Z,6.77
2018-07-14T00:48:18.977Z,6.17
2018-07-14T00:50:47.798Z,7.60
2018-07-14T00:53:16.608Z,7.10
2018-07-14T00:55:45.713Z,7.70
2018-07-14T00:58:14.818Z,6.87
2018-07-14T01:00:44.260Z,7.67
2018-07-14T01:03:13.319Z,7.13
2018-07-14T01:05:42.481Z,6.83
2018-07-14T01:08:11.215Z,6.97
2018-07-14T01:10:40.198Z,8.23
2018-07-14T01:13:09.025Z,7.67
2018-07-14T01:15:38.099Z,8.03
2018-07-14T01:18:07.696Z,10.03
2018-07-14T01:20:36.447Z,10.03
2018-07-14T01:23:05.595Z,9.27
2018-07-14T01:25:34.692Z,10.53
2018-07-14T01:28:03.827Z,8.87
2018-07-14T01:30:32.697Z,9.20
2018-07-14T01:33:01.766Z,9.10
2018-07-14T01:35:30.498Z,7.60
2018-07-14T01:37:59.611Z,7.77
2018-07-14T01:40:28.684Z,7.90
2018-07-14T01:42:57.767Z,8.33
2018-07-14T01:45:27.365Z,7.83
2018-07-14T01:47:56.461Z,8.33
2018-07-14T01:50:25.203Z,6.77
2018-07-14T01:52:54.642Z,7.50
2018-07-14T01:55:23.825Z,7.00
2018-07-14T01:57:51.478Z,6.43
2018-07-14T02:00:20.292Z,7.00
2018-07-14T02:02:49.111Z,5.97
2018-07-14T02:05:18.407Z,7.40
2018-07-14T02:07:47.171Z,6.93
2018-07-14T02:10:16.660Z,6.83
2018-07-14T02:12:45.508Z,7.57
2018-07-14T02:15:14.393Z,7.00
2018-07-14T02:17:43.305Z,7.90
2018-07-14T02:20:12.216Z,8.30
2018-07-14T02:22:40.987Z,8.20
2018-07-14T02:25:09.799Z,8.57
2018-07-14T02:27:39.426Z,8.43
2018-07-14T02:30:08.347Z,7.60
2018-07-14T02:32:37.854Z,10.20
2018-07-14T02:35:06.947Z,9.30
2018-07-14T02:37:36.324Z,9.73
2018-07-14T02:40:05.334Z,8.67
2018-07-14T02:42:34.474Z,9.97
2018-07-14T02:45:03.461Z,10.20
2018-07-14T02:47:32.324Z,11.33
2018-07-14T02:50:01.124Z,9.23
2018-07-14T02:52:29.903Z,10.50
2018-07-14T02:54:59.095Z,9.00
2018-07-14T02:57:28.321Z,9.63
2018-07-14T02:59:57.386Z,8.33
2018-07-14T03:02:26.767Z,8.77
2018-07-14T03:04:55.607Z,9.13
2018-07-14T03:07:24.797Z,8.20
2018-07-14T03:09:53.860Z,9.07
2018-07-14T03:12:22.995Z,8.90
2018-07-14T03:14:51.727Z,7.67
2018-07-14T03:17:20.619Z,8.73
2018-07-14T03:19:50.217Z,7.63
2018-07-14T03:22:19.490Z,7.50
2018-07-14T03:24:48.355Z,7.40
2018-07-14T03:27:17.224Z,8.27
2018-07-14T03:29:46.102Z,7.80
2018-07-14T03:32:15.666Z,7.40
2018-07-14T03:34:45.221Z,6.80
2018-07-14T03:37:14.314Z,8.47
2018-07-14T03:39:43.435Z,8.30
2018-07-14T03:42:12.897Z,6.07
2018-07-14T03:44:41.631Z,4.80
2018-07-14T03:47:10.410Z,4.73
2018-07-14T03:49:39.437Z,4.17
2018-07-14T03:52:08.169Z,5.63
2018-07-14T03:54:37.785Z,8.50
2018-07-14T03:57:06.751Z,8.83
2018-07-14T03:59:35.992Z,9.57
2018-07-14T04:02:05.125Z,10.37
2018-07-14T04:04:34.169Z,10.50
2018-07-14T04:07:03.503Z,9.17
2018-07-14T04:09:32.277Z,8.40
2018-07-14T04:12:01.596Z,9.57
2018-07-14T04:14:30.419Z,8.63
2018-07-14T04:16:59.443Z,9.00
2018-07-14T04:19:28.206Z,9.03
2018-07-14T04:21:57.259Z,10.43
2018-07-14T04:24:26.036Z,11.23
2018-07-14T04:26:55.162Z,11.80
2018-07-14T04:29:24.221Z,8.60
2018-07-14T04:31:53.640Z,9.50
2018-07-14T04:34:22.754Z,8.73
2018-07-14T04:36:51.503Z,9.30
2018-07-14T04:39:21.219Z,9.30
2018-07-14T04:41:50.027Z,10.43
2018-07-14T04:44:19.130Z,10.20
2018-07-14T04:46:48.253Z,10.60
2018-07-14T04:49:17.692Z,8.90
2018-07-14T04:51:46.596Z,8.00
2018-07-14T04:54:15.733Z,9.60
2018-07-14T04:56:44.785Z,9.33
2018-07-14T04:59:13.614Z,9.80
2018-07-14T05:01:42.920Z,9.63
2018-07-14T05:04:12.068Z,9.90
2018-07-14T05:06:41.200Z,10.03
2018-07-14T05:09:10.272Z,10.90
2018-07-14T05:11:39.438Z,11.40
2018-07-14T05:14:08.251Z,12.90
2018-07-14T05:16:37.090Z,13.37
2018-07-14T05:19:06.422Z,12.10
2018-07-14T05:21:35.196Z,13.47
2018-07-14T05:24:04.051Z,13.37
2018-07-14T05:26:33.343Z,13.33
2018-07-14T05:29:02.161Z,12.63
2018-07-14T05:31:31.440Z,11.77
2018-07-14T05:34:00.869Z,12.50
2018-07-14T05:36:29.953Z,12.77
2018-07-14T05:38:59.134Z,13.50
2018-07-14T05:41:27.918Z,11.50
2018-07-14T05:43:56.805Z,11.60
2018-07-14T05:46:25.582Z,12.90
2018-07-14T05:48:54.675Z,11.90
2018-07-14T05:51:23.534Z,10.83
2018-07-14T05:53:52.348Z,10.13
2018-07-14T05:56:22.070Z,10.90
2018-07-14T05:58:51.220Z,11.27
2018-07-14T06:01:19.990Z,9.90
2018-07-14T06:03:48.775Z,10.97
2018-07-14T06:06:17.586Z,10.30
2018-07-14T06:08:46.637Z,9.03
2018-07-14T06:11:15.477Z,9.60
2018-07-14T06:13:44.623Z,12.67
2018-07-14T06:16:13.355Z,9.87
2018-07-14T06:18:42.224Z,9.30
2018-07-14T06:21:12.011Z,9.17
2018-07-14T06:23:41.442Z,9.10
2018-07-14T06:26:10.365Z,8.63
2018-07-14T06:28:39.518Z,8.57
2018-07-14T06:31:08.609Z,9.60
2018-07-14T06:33:37.747Z,9.13
2018-07-14T06:36:06.808Z,8.20
2018-07-14T06:38:35.659Z,9.83
2018-07-14T06:41:05.061Z,7.30
2018-07-14T06:43:34.156Z,8.03
2018-07-14T06:46:03.178Z,7.40
2018-07-14T06:48:32.001Z,7.33
2018-07-14T06:51:01.242Z,6.40
2018-07-14T06:53:30.688Z,7.07
2018-07-14T06:56:00.014Z,7.40
2018-07-14T06:58:28.789Z,7.10
2018-07-14T07:00:58.222Z,6.30
2018-07-14T07:03:27.085Z,6.67
2018-07-14T07:05:56.167Z,6.60
2018-07-14T07:08:25.047Z,5.40
2018-07-14T07:10:54.484Z,4.50
2018-07-14T07:13:23.538Z,4.93
2018-07-14T07:15:52.618Z,5.97
2018-07-14T07:18:21.396Z,5.70
2018-07-14T07:20:50.461Z,5.70
2018-07-14T07:23:19.560Z,5.00
2018-07-14T07:25:48.703Z,4.10
2018-07-14T07:28:18.118Z,4.60
2018-07-14T07:30:47.512Z,4.13
2018-07-14T07:33:17.045Z,3.50
2018-07-14T07:35:46.113Z,3.03
2018-07-14T07:38:14.914Z,3.50
2018-07-14T07:40:44.026Z,3.50
2018-07-14T07:43:13.466Z,3.60
2018-07-14T07:45:42.245Z,4.30
2018-07-14T07:48:11.140Z,4.10
2018-07-14T07:50:40.211Z,3.10
2018-07-14T07:53:09.026Z,4.37
2018-07-14T07:55:38.045Z,4.80
2018-07-14T07:58:07.106Z,3.30
2018-07-14T08:00:35.909Z,3.77
2018-07-14T08:03:04.929Z,3.70
2018-07-14T08:05:34.973Z,4.10
2018-07-14T08:08:03.788Z,4.13
2018-07-14T08:10:32.807Z,2.80
2018-07-14T08:13:01.825Z,3.20
2018-07-14T08:15:30.546Z,2.90
2018-07-14T08:17:59.558Z,2.70
2018-07-14T08:20:28.605Z,3.20
2018-07-14T08:22:57.805Z,3.37
2018-07-14T08:25:26.902Z,2.83
2018-07-14T08:27:56.306Z,3.13
2018-07-14T08:30:25.487Z,3.70
2018-07-14T08:32:54.247Z,3.13
2018-07-14T08:35:23.039Z,3.00
2018-07-14T08:37:52.121Z,2.80
2018-07-14T08:40:20.891Z,2.90
2018-07-14T08:42:49.652Z,3.13
2018-07-14T08:45:18.447Z,3.30
2018-07-14T08:47:47.347Z,3.63
2018-07-14T08:50:16.424Z,2.80
2018-07-14T08:52:45.142Z,3.17
2018-07-14T08:55:13.904Z,2.70
2018-07-14T08:57:43.278Z,2.23
2018-07-14T09:00:13.228Z,2.50
2018-07-14T09:02:42.284Z,2.27
2018-07-14T09:05:11.000Z,2.27
2018-07-14T09:07:39.845Z,2.13
2018-07-14T09:10:09.110Z,2.57
2018-07-14T09:12:38.546Z,2.47
2018-07-14T09:15:07.997Z,2.57
2018-07-14T09:17:37.037Z,2.70
2018-07-14T09:20:06.249Z,2.20
2018-07-14T09:22:35.643Z,2.10
2018-07-14T09:25:04.522Z,1.70
2018-07-14T09:27:33.630Z,1.73
2018-07-14T09:30:02.524Z,1.63
2018-07-14T09:32:31.718Z,1.80
2018-07-14T09:35:00.830Z,1.20
2018-07-14T09:37:30.249Z,1.90
2018-07-14T09:39:59.282Z,1.90
2018-07-14T09:42:28.058Z,1.30
2018-07-14T09:44:57.134Z,1.70
2018-07-14T09:47:25.915Z,1.50
2018-07-14T09:49:55.137Z,1.50
2018-07-14T09:52:24.265Z,1.67
2018-07-14T09:54:53.099Z,1.53
2018-07-14T09:57:22.115Z,1.67
2018-07-14T09:59:50.874Z,2.13
2018-07-14T10:02:19.659Z,1.77
2018-07-14T10:04:49.338Z,1.70
2018-07-14T10:07:18.660Z,1.60
2018-07-14T10:09:47.938Z,1.43
2018-07-14T10:12:16.987Z,1.57
2018-07-14T10:14:46.079Z,1.80
2018-07-14T10:17:15.218Z,1.57
2018-07-14T10:19:44.206Z,1.70
2018-07-14T10:22:13.455Z,1.30
2018-07-14T10:24:42.203Z,1.57
2018-07-14T10:27:11.613Z,1.17
2018-07-14T10:29:40.398Z,1.10
2018-07-14T10:32:09.759Z,1.30
2018-07-14T10:34:38.789Z,1.37
2018-07-14T10:37:07.928Z,1.10
2018-07-14T10:39:37.258Z,1.37
2018-07-14T10:42:06.405Z,1.40
2018-07-14T10:44:35.924Z,1.40
2018-07-14T10:47:05.279Z,2.10
2018-07-14T10:49:34.692Z,1.40
2018-07-14T10:52:03.588Z,1.30
2018-07-14T10:54:33.032Z,1.20
2018-07-14T10:57:02.127Z,1.03
2018-07-14T10:59:31.199Z,1.47
2018-07-14T11:02:00.329Z,1.00
2018-07-14T11:04:29.524Z,1.50
2018-07-14T11:06:58.372Z,1.13
2018-07-14T11:09:27.390Z,1.00
2018-07-14T11:11:56.405Z,1.33
2018-07-14T11:14:28.604Z,1.60
2018-07-14T11:16:58.060Z,1.20
2018-07-14T11:19:28.024Z,1.10
2018-07-14T11:21:57.796Z,1.10
2018-07-14T11:24:27.351Z,1.43
2018-07-14T11:26:56.196Z,1.03
2018-07-14T11:29:25.641Z,1.20
2018-07-14T11:31:54.458Z,1.47
2018-07-14T11:34:23.467Z,1.17
2018-07-14T11:36:52.663Z,1.03
2018-07-14T11:39:21.894Z,1.30
2018-07-14T11:41:51.284Z,1.50
2018-07-14T11:44:20.336Z,1.17
2018-07-14T11:46:49.372Z,1.10
2018-07-14T11:49:18.215Z,1.10
2018-07-14T11:51:47.528Z,1.23
2018-07-14T11:54:16.317Z,1.00
2018-07-14T11:56:45.446Z,2.37
2018-07-14T11:59:14.236Z,1.30
2018-07-14T12:01:43.290Z,1.20
2018-07-14T12:04:12.315Z,1.13
2018-07-14T12:06:41.965Z,1.20
2018-07-14T12:09:10.780Z,1.20
2018-07-14T12:11:39.911Z,0.80
2018-07-14T12:14:08.734Z,1.00
2018-07-14T12:16:37.913Z,0.93
2018-07-14T12:19:07.062Z,0.93
2018-07-14T12:21:35.897Z,0.70
2018-07-14T12:26:46.497Z,0.77
2018-07-14T12:29:15.908Z,1.10
2018-07-14T12:31:44.703Z,1.03
2018-07-14T12:34:14.033Z,1.00
2018-07-14T12:36:42.810Z,0.97
2018-07-14T12:39:11.579Z,1.03
2018-07-14T12:41:40.435Z,0.93
2018-07-14T12:44:09.354Z,0.83
2018-07-14T12:46:38.526Z,0.80
2018-07-14T12:49:07.374Z,0.80
2018-07-14T12:51:36.263Z,1.00
2018-07-14T12:54:05.334Z,0.73
2018-07-14T12:56:34.245Z,0.60
2018-07-14T12:59:03.421Z,0.70
2018-07-14T13:01:33.261Z,0.90
2018-07-14T13:04:02.131Z,0.80
2018-07-14T13:06:31.113Z,0.70
2018-07-14T13:09:00.177Z,0.70
2018-07-14T13:11:29.307Z,0.70
2018-07-14T13:13:58.245Z,1.10
2018-07-14T13:16:27.667Z,0.70
2018-07-14T13:18:56.516Z,0.97
2018-07-14T13:21:25.580Z,0.77
2018-07-14T13:23:54.690Z,0.83
2018-07-14T13:26:23.469Z,0.87
2018-07-14T13:28:53.040Z,0.50
2018-07-14T13:31:22.288Z,0.83
2018-07-14T13:33:51.821Z,0.80
2018-07-14T13:36:21.144Z,0.80
2018-07-14T13:38:51.736Z,0.97
2018-07-14T13:41:19.515Z,1.00
2018-07-14T13:43:48.725Z,0.90
2018-07-14T13:46:18.245Z,0.70
2018-07-14T13:48:47.601Z,0.90
2018-07-14T13:51:16.999Z,0.70
2018-07-14T13:53:46.244Z,0.90
2018-07-14T13:56:15.382Z,1.00
2018-07-14T13:58:44.250Z,0.70
2018-07-14T14:01:14.093Z,1.10
2018-07-14T14:03:43.034Z,0.80
2018-07-14T14:06:11.898Z,0.60
2018-07-14T14:08:41.491Z,0.87
2018-07-14T14:11:10.443Z,0.73
2018-07-14T14:13:39.627Z,0.63
2018-07-14T14:16:08.668Z,0.63
2018-07-14T14:18:37.688Z,0.87
2018-07-14T14:21:06.895Z,0.80
2018-07-14T14:23:35.787Z,0.70
2018-07-14T14:26:04.956Z,0.67
2018-07-14T14:28:33.757Z,0.70
2018-07-14T14:31:02.653Z,0.50
2018-07-14T14:33:32.231Z,0.70
2018-07-14T14:36:01.105Z,0.80
2018-07-14T14:38:30.315Z,0.87
2018-07-14T14:41:02.889Z,0.50
2018-07-14T14:43:32.105Z,1.20
2018-07-14T14:46:02.556Z,0.90
2018-07-14T14:48:31.901Z,0.97
2018-07-14T14:51:00.960Z,1.47
2018-07-14T14:53:30.368Z,1.10
2018-07-14T14:56:00.340Z,0.83
2018-07-14T14:58:29.158Z,1.00
2018-07-14T15:00:59.337Z,0.90
2018-07-14T15:03:29.514Z,0.90
2018-07-14T15:05:59.172Z,0.70
2018-07-14T15:08:28.057Z,0.83
2018-07-14T15:10:57.728Z,0.93
2018-07-14T15:13:53.313Z,0.70
2018-07-14T15:16:22.189Z,0.90
2018-07-14T15:18:51.446Z,0.80
2018-07-14T15:21:20.646Z,0.60
2018-07-14T15:23:50.147Z,0.80
2018-07-14T15:26:19.130Z,1.00
2018-07-14T15:28:48.246Z,1.30
2018-07-14T15:31:17.066Z,0.70
2018-07-14T15:33:46.469Z,0.70
2018-07-14T15:36:16.940Z,1.70
2018-07-14T15:38:45.771Z,1.27
2018-07-14T15:41:14.538Z,1.10
2018-07-14T15:43:44.076Z,0.73
2018-07-14T15:46:13.147Z,1.00
2018-07-14T15:48:41.994Z,0.93
2018-07-14T15:51:10.853Z,0.80
2018-07-14T15:53:40.047Z,1.00
2018-07-14T15:56:09.138Z,1.30
2018-07-14T15:58:38.027Z,0.90
2018-07-14T16:01:07.159Z,0.80
2018-07-14T16:03:36.307Z,0.80
2018-07-14T16:06:05.528Z,0.80
2018-07-14T16:08:34.673Z,0.83
2018-07-14T16:11:03.478Z,0.77
2018-07-14T16:13:32.412Z,1.40
2018-07-14T16:16:01.255Z,1.40
2018-07-14T16:18:30.492Z,1.20
2018-07-14T16:20:59.621Z,1.43
2018-07-14T16:23:28.791Z,0.87
2018-07-14T16:25:58.068Z,1.40
2018-07-14T16:28:26.970Z,7.23
2018-07-14T16:30:55.850Z,1.07
2018-07-14T16:33:24.855Z,1.40
2018-07-14T16:35:53.891Z,2.73
2018-07-14T16:38:22.984Z,0.90
2018-07-14T16:40:51.889Z,0.90
2018-07-14T16:43:21.821Z,1.20
2018-07-14T16:45:50.722Z,1.40
2018-07-14T16:48:19.589Z,1.07
2018-07-14T16:50:48.506Z,1.90
2018-07-14T16:53:17.504Z,1.97
2018-07-14T16:55:46.586Z,3.13
2018-07-14T16:58:15.834Z,1.20
2018-07-14T17:00:44.676Z,0.93
2018-07-14T17:03:14.228Z,1.03
2018-07-14T17:05:43.279Z,1.30
2018-07-14T17:08:12.191Z,1.20
2018-07-14T17:10:41.971Z,1.20
2018-07-14T17:13:11.061Z,0.90
2018-07-14T17:15:40.291Z,1.33
2018-07-14T17:18:10.217Z,0.87
2018-07-14T17:20:39.388Z,1.00
2018-07-14T17:23:08.484Z,1.27
2018-07-14T17:25:37.592Z,1.30
2018-07-14T17:28:07.171Z,1.10
2018-07-14T17:30:36.347Z,1.10
2018-07-14T17:33:06.414Z,1.30
2018-07-14T17:35:35.535Z,1.40
2018-07-14T17:38:04.702Z,3.77
2018-07-14T17:40:33.535Z,1.90
2018-07-14T17:43:02.722Z,1.80
2018-07-14T17:45:31.604Z,1.57
2018-07-14T17:48:00.809Z,1.50
2018-07-14T17:50:29.706Z,1.20
2018-07-14T17:53:00.095Z,1.20
2018-07-14T17:55:29.220Z,1.10
2018-07-14T17:57:58.334Z,1.23
2018-07-14T18:00:28.506Z,1.23
2018-07-14T18:02:57.670Z,1.70
2018-07-14T18:05:26.612Z,2.07
2018-07-14T18:07:57.346Z,1.40
2018-07-14T18:10:26.534Z,1.47
2018-07-14T18:12:55.517Z,1.10
2018-07-14T18:15:24.347Z,1.27
2018-07-14T18:17:53.689Z,0.97
2018-07-14T18:20:22.831Z,1.23
2018-07-14T18:22:57.662Z,1.37
2018-07-14T18:25:26.891Z,1.30
2018-07-14T18:27:56.301Z,1.00
2018-07-14T18:30:25.495Z,1.10
2018-07-14T18:32:54.749Z,1.10
2018-07-14T18:35:24.219Z,1.33
2018-07-14T18:37:54.027Z,1.03
2018-07-14T18:40:23.497Z,1.47
2018-07-14T18:42:52.336Z,1.20
2018-07-14T18:45:21.564Z,1.50
2018-07-14T18:47:50.685Z,1.67
2018-07-14T18:50:19.794Z,1.63
2018-07-14T18:52:49.252Z,1.50
2018-07-14T18:55:18.446Z,1.00
2018-07-14T18:57:47.240Z,0.97
2018-07-14T19:00:16.347Z,1.60
2018-07-14T19:02:45.775Z,1.40
2018-07-14T19:05:23.702Z,1.00
2018-07-14T19:07:53.151Z,1.40
2018-07-14T19:10:22.783Z,1.03
2018-07-14T19:12:51.970Z,0.90
2018-07-14T19:15:25.983Z,0.90
2018-07-14T19:17:55.169Z,1.30
2018-07-14T19:20:24.943Z,1.30
2018-07-14T19:22:54.124Z,1.13
2018-07-14T19:25:23.038Z,0.97
2018-07-14T19:27:52.093Z,1.10
2018-07-14T19:30:21.387Z,1.47
2018-07-14T19:32:50.527Z,1.17
2018-07-14T19:35:19.350Z,0.87
2018-07-14T19:37:48.308Z,1.47
2018-07-14T19:40:17.616Z,1.63
2018-07-14T19:42:46.484Z,1.90
2018-07-14T19:45:15.415Z,1.80
2018-07-14T19:47:44.624Z,1.60
2018-07-14T19:50:14.065Z,0.90
2018-07-14T19:52:42.879Z,1.80
2018-07-14T19:55:12.603Z,1.80
2018-07-14T19:57:42.034Z,1.40
2018-07-14T20:00:11.126Z,1.43
2018-07-14T20:02:39.861Z,1.20
2018-07-14T20:05:08.918Z,1.23
2018-07-14T20:07:37.789Z,1.43
2018-07-14T20:10:06.862Z,1.90
2018-07-14T20:12:36.001Z,1.77
2018-07-14T20:15:04.814Z,1.27
2018-07-14T20:17:33.654Z,1.00
2018-07-14T20:20:02.796Z,1.37
2018-07-14T20:22:31.786Z,1.00
2018-07-14T20:25:00.589Z,1.50
2018-07-14T20:27:29.387Z,1.40
2018-07-14T20:29:59.144Z,1.43
2018-07-14T20:32:28.126Z,1.40
2018-07-14T20:34:57.295Z,1.40
2018-07-14T20:37:26.056Z,1.60
2018-07-14T20:39:54.851Z,1.50
2018-07-14T20:42:23.982Z,1.40
2018-07-14T20:44:52.747Z,1.60
2018-07-14T20:47:21.554Z,1.60
2018-07-14T20:49:50.314Z,1.60
2018-07-14T20:52:19.807Z,1.80
2018-07-14T20:54:48.883Z,1.67
2018-07-14T20:57:18.036Z,2.03
2018-07-14T20:59:47.238Z,1.90
2018-07-14T21:02:16.303Z,2.30
2018-07-14T21:04:45.719Z,1.43
2018-07-14T21:07:15.044Z,1.40
2018-07-14T21:09:44.207Z,2.37
2018-07-14T21:12:13.603Z,3.00
2018-07-14T21:14:43.324Z,1.60
2018-07-14T21:17:12.407Z,2.03
2018-07-14T21:19:41.745Z,1.40
2018-07-14T21:22:10.587Z,1.87
2018-07-14T21:24:40.660Z,1.90
2018-07-14T21:27:09.502Z,2.20
2018-07-14T21:29:39.042Z,1.70
2018-07-14T21:32:09.142Z,2.10
2018-07-14T21:34:38.359Z,1.63
2018-07-14T21:37:07.141Z,2.00
2018-07-14T21:39:35.975Z,1.97
2018-07-14T21:42:05.129Z,2.97
2018-07-14T21:44:33.983Z,2.30
2018-07-14T21:47:03.185Z,2.10
2018-07-14T21:49:32.703Z,2.60
2018-07-14T21:52:01.528Z,2.30
2018-07-14T21:54:30.776Z,2.43
2018-07-14T21:56:59.566Z,3.33
2018-07-14T21:59:28.561Z,2.60
2018-07-14T22:01:58.161Z,2.50
2018-07-14T22:04:27.241Z,2.43
2018-07-14T22:06:56.064Z,2.97
2018-07-14T22:09:26.533Z,2.97
2018-07-14T22:11:56.551Z,2.50
2018-07-14T22:14:26.467Z,2.63
2018-07-14T22:16:56.532Z,2.70
2018-07-14T22:19:26.357Z,3.17
2018-07-14T22:21:56.631Z,3.50
2018-07-14T22:24:26.003Z,3.07
2018-07-14T22:26:55.143Z,3.37
2018-07-14T22:29:24.601Z,3.00
2018-07-14T22:31:53.601Z,2.40
2018-07-14T22:34:23.512Z,3.17
2018-07-14T22:36:53.082Z,4.10
2018-07-14T22:39:22.181Z,3.40
2018-07-14T22:41:51.059Z,3.43
2018-07-14T22:44:20.781Z,3.27
2018-07-14T22:46:49.676Z,3.43
2018-07-14T22:49:18.865Z,3.47
2018-07-14T22:51:48.054Z,3.27
2018-07-14T22:54:17.265Z,3.50
2018-07-14T22:56:46.085Z,3.00
2018-07-14T22:59:15.854Z,3.70
2018-07-14T23:01:44.658Z,4.00
2018-07-14T23:04:13.560Z,4.10
2018-07-14T23:06:42.887Z,3.53
2018-07-14T23:09:12.059Z,3.97
2018-07-14T23:11:41.158Z,4.40
2018-07-14T23:14:10.226Z,4.00
2018-07-14T23:16:40.020Z,3.90
2018-07-14T23:19:08.931Z,3.50
2018-07-14T23:21:38.489Z,3.00
2018-07-14T23:24:08.347Z,3.87
2018-07-14T23:26:37.479Z,3.77
2018-07-14T23:29:06.372Z,4.03
2018-07-14T23:31:35.403Z,4.03
2018-07-14T23:34:04.209Z,4.37
2018-07-14T23:36:33.665Z,4.60
2018-07-14T23:39:02.863Z,4.40
2018-07-14T23:41:32.265Z,3.77
2018-07-14T23:44:01.032Z,4.17
2018-07-14T23:46:29.969Z,4.83
2018-07-14T23:48:59.581Z,4.73
2018-07-14T23:51:28.576Z,4.13
2018-07-14T23:53:57.889Z,4.60
2018-07-14T23:56:26.807Z,5.03
2018-07-14T23:58:55.988Z,5.07
